Time;durP1;ratioP1;P1;durP2;ratioP2;P2;SDS_P1;SDS_P2;PMS_P1;PMS_P2;Temp;Humidity;BMP_temperature;BMP_pressure;BME280_temperature;BME280_humidity;BME280_pressure;Samples;Min_cycle;Max_cycle;Signal;HPM_P1;HPM_P2
2023/06/05 00:00:17;;;;;;;2.45;2.03;;;;;;;14.61;42.29;101487.47;4965861;28;20526;-75
2023/06/05 00:03:09;;;;;;;4.15;1.63;;;;;;;14.61;42.10;101492.75;4938638;28;20055;-75
2023/06/05 00:05:39;;;;;;;6.60;2.13;;;;;;;14.61;42.26;101490.13;4964023;28;20059;-74
2023/06/05 00:08:06;;;;;;;3.20;1.90;;;;;;;14.61;42.30;101489.25;4935328;28;20110;-74
2023/06/05 00:10:38;;;;;;;3.90;1.08;;;;;;;14.62;42.12;101493.59;4933302;28;20047;-73
2023/06/05 00:13:12;;;;;;;3.05;1.30;;;;;;;14.63;42.31;101500.59;4919766;29;20091;-74
2023/06/05 00:15:40;;;;;;;2.72;1.73;;;;;;;14.63;42.07;101496.19;4945733;28;20123;-74
2023/06/05 00:18:09;;;;;;;3.17;1.58;;;;;;;14.63;42.23;101501.47;4950349;28;20094;-75
2023/06/05 00:20:42;;;;;;;2.05;1.38;;;;;;;14.64;42.28;101497.03;4938067;28;20055;-75
2023/06/05 00:23:13;;;;;;;2.33;1.30;;;;;;;14.64;42.30;101504.97;4952169;28;20054;-74
2023/06/05 00:25:41;;;;;;;2.70;1.55;;;;;;;14.62;42.47;101502.41;4945994;28;20579;-75
2023/06/05 00:28:09;;;;;;;1.80;1.10;;;;;;;14.63;42.27;101503.25;4955818;28;20071;-76
2023/06/05 00:30:40;;;;;;;2.83;1.30;;;;;;;14.62;42.31;101510.34;4938121;28;20260;-74
2023/06/05 00:33:08;;;;;;;3.63;1.70;;;;;;;14.61;42.50;101505.16;4954415;28;20083;-73
2023/06/05 00:35:39;;;;;;;3.22;0.90;;;;;;;14.60;42.14;101506.13;4977775;28;20138;-74
2023/06/05 00:38:10;;;;;;;1.80;1.35;;;;;;;14.56;42.56;101505.44;4928341;28;20055;-75
2023/06/05 00:40:39;;;;;;;2.95;1.45;;;;;;;14.54;42.12;101503.81;4971856;28;20069;-74
2023/06/05 00:43:08;;;;;;;5.65;1.60;;;;;;;14.52;42.30;101506.56;4927870;29;20047;-75
2023/06/05 00:45:37;;;;;;;1.77;1.02;;;;;;;14.50;42.30;101504.97;4952655;28;20046;-74
2023/06/05 00:51:03;;;;;;;5.28;2.42;;;;;;;14.41;42.38;101504.56;4961497;28;20137;-74
2023/06/05 00:53:36;;;;;;;4.65;1.60;;;;;;;14.37;43.24;101496.91;4947407;28;20442;-77
2023/06/05 00:56:09;;;;;;;4.28;1.52;;;;;;;14.31;43.40;101500.75;4950333;28;20126;-75
2023/06/05 00:59:00;;;;;;;2.83;1.60;;;;;;;14.27;42.98;101495.72;4951186;28;20042;-75
2023/06/05 01:01:29;;;;;;;4.95;1.50;;;;;;;14.22;43.30;101508.41;4921859;28;20059;-75
2023/06/05 01:04:00;;;;;;;2.95;1.67;;;;;;;14.17;43.54;101492.78;4946578;28;20062;-76
2023/06/05 01:10:34;;;;;;;2.60;1.35;;;;;;;14.05;44.12;101499.69;4952100;28;20043;-75
2023/06/05 01:13:17;;;;;;;3.38;1.30;;;;;;;14.01;44.26;101500.81;4948510;28;20115;-76
2023/06/05 01:15:48;;;;;;;3.58;1.27;;;;;;;13.97;44.81;101493.16;4954485;28;20877;-76
2023/06/05 01:18:23;;;;;;;2.33;1.40;;;;;;;13.96;44.29;101491.41;4948596;28;20074;-75
2023/06/05 01:20:56;;;;;;;2.03;1.20;;;;;;;13.92;44.72;101483.69;4950041;28;20051;-73
2023/06/05 01:23:25;;;;;;;3.58;1.55;;;;;;;13.90;45.07;101487.34;4950648;28;20063;-75
2023/06/05 01:25:55;;;;;;;2.17;1.25;;;;;;;13.87;45.04;101484.91;4939339;28;20067;-74
2023/06/05 01:28:28;;;;;;;3.60;1.33;;;;;;;13.85;45.26;101484.13;4964129;28;20443;-75
2023/06/05 01:31:13;;;;;;;2.40;1.50;;;;;;;13.84;45.63;101480.63;4933699;28;20063;-75
2023/06/05 01:33:56;;;;;;;2.55;1.50;;;;;;;13.80;45.18;101487.03;4929679;28;20066;-73
2023/06/05 01:36:26;;;;;;;1.75;1.40;;;;;;;13.78;45.50;101485.41;4935560;28;20082;-78
2023/06/05 01:39:18;;;;;;;3.80;1.50;;;;;;;13.75;45.60;101488.25;4939379;28;20050;-75
2023/06/05 01:42:04;;;;;;;2.92;1.55;;;;;;;13.72;45.69;101483.97;4946227;28;20087;-75
2023/06/05 01:44:52;;;;;;;2.88;1.20;;;;;;;13.72;45.82;101488.44;4933440;28;20390;-75
2023/06/05 01:47:40;;;;;;;2.08;1.40;;;;;;;13.71;45.21;101481.44;4947365;29;20043;-75
2023/06/05 01:50:33;;;;;;;2.20;1.20;;;;;;;13.70;45.95;101487.69;4922911;28;20233;-75
2023/06/05 01:53:04;;;;;;;2.17;1.38;;;;;;;13.66;45.81;101482.56;4932838;28;20043;-75
2023/06/05 01:55:39;;;;;;;3.03;1.20;;;;;;;13.65;46.07;101482.66;4930573;29;20051;-75
2023/06/05 01:58:06;;;;;;;3.70;1.50;;;;;;;13.61;46.25;101484.63;4936793;29;20401;-74
2023/06/05 02:00:36;;;;;;;2.90;1.23;;;;;;;13.60;46.32;101482.06;4948548;28;20052;-75
2023/06/05 02:03:07;;;;;;;3.63;1.23;;;;;;;13.58;46.03;101484.78;4933505;29;20075;-75
2023/06/05 02:05:35;;;;;;;2.90;1.30;;;;;;;13.56;45.89;101481.38;4934211;29;20428;-75
2023/06/05 02:08:05;;;;;;;4.45;1.25;;;;;;;13.53;46.01;101480.72;4937828;29;20091;-74
2023/06/05 02:10:45;;;;;;;1.80;1.10;;;;;;;13.51;46.20;101477.28;4931527;29;20434;-74
2023/06/05 02:13:18;;;;;;;1.23;0.93;;;;;;;13.47;46.52;101481.91;4936449;28;20075;-75
2023/06/05 02:15:49;;;;;;;2.78;1.10;;;;;;;13.42;46.91;101476.91;4958209;28;20051;-75
2023/06/05 02:18:20;;;;;;;3.00;1.55;;;;;;;13.40;47.02;101477.91;4972128;28;20106;-74
2023/06/05 02:21:19;;;;;;;2.92;1.70;;;;;;;13.38;46.60;101472.72;4943279;28;20171;-75
2023/06/05 02:23:49;;;;;;;5.43;1.25;;;;;;;13.38;46.82;101463.94;4955838;28;20086;-73
2023/06/05 02:26:30;;;;;;;2.58;1.63;;;;;;;13.36;46.12;101464.00;4960292;28;20509;-74
2023/06/05 02:29:21;;;;;;;2.85;1.70;;;;;;;13.35;46.59;101461.44;4950204;28;20119;-75
2023/06/05 02:32:06;;;;;;;2.97;1.50;;;;;;;13.35;46.70;101453.53;4925324;29;20055;-74
2023/06/05 02:34:35;;;;;;;1.83;1.23;;;;;;;13.33;47.04;101450.13;4950465;28;20510;-75
2023/06/05 02:37:04;;;;;;;2.40;1.10;;;;;;;13.30;47.39;101459.06;4943432;28;20058;-75
2023/06/05 02:39:37;;;;;;;3.03;1.13;;;;;;;13.27;47.55;101459.22;4933947;28;20055;-74
2023/06/05 02:42:08;;;;;;;2.63;1.45;;;;;;;13.23;47.28;101452.41;4960324;28;20048;-76
2023/06/05 02:44:36;;;;;;;2.08;1.33;;;;;;;13.22;47.84;101453.38;4942286;28;20550;-75
2023/06/05 02:47:06;;;;;;;4.55;1.60;;;;;;;13.20;47.56;101451.72;4947244;28;20063;-75
2023/06/05 02:49:37;;;;;;;2.78;1.35;;;;;;;13.18;47.19;101452.66;4945286;28;20065;-74
2023/06/05 02:52:07;;;;;;;3.47;1.10;;;;;;;13.17;47.27;101456.22;4947724;28;20154;-75
2023/06/05 02:54:38;;;;;;;3.72;1.38;;;;;;;13.18;47.30;101457.09;4953404;28;20078;-74
2023/06/05 02:57:11;;;;;;;5.10;1.40;;;;;;;13.17;47.14;101453.59;4961184;28;20075;-74
2023/06/05 02:59:42;;;;;;;2.60;1.58;;;;;;;13.17;47.26;101450.09;4951843;28;20065;-75
2023/06/05 03:02:12;;;;;;;3.35;1.50;;;;;;;13.15;47.63;101452.00;4945898;29;20048;-76
2023/06/05 03:04:52;;;;;;;2.38;1.80;;;;;;;13.14;47.81;101452.91;4934102;29;20079;-74
2023/06/05 03:07:29;;;;;;;2.90;1.52;;;;;;;13.14;47.01;101456.41;4920260;29;20123;-74
2023/06/05 03:10:03;;;;;;;1.88;1.13;;;;;;;13.15;47.92;101457.28;4932063;29;20039;-75
2023/06/05 03:12:33;;;;;;;4.22;1.40;;;;;;;13.16;47.66;101458.97;4946601;29;20059;-74
2023/06/05 03:15:01;;;;;;;2.47;1.42;;;;;;;13.15;47.79;101455.47;4935890;29;20135;-74
2023/06/05 03:17:34;;;;;;;4.45;1.60;;;;;;;13.15;47.71;101454.63;4942629;29;20054;-73
2023/06/05 03:20:09;;;;;;;2.33;1.60;;;;;;;13.15;47.72;101452.00;4939231;28;20047;-75
2023/06/05 03:22:45;;;;;;;5.90;1.33;;;;;;;13.14;48.26;101448.47;4950779;28;20086;-74
2023/06/05 03:25:19;;;;;;;5.97;1.52;;;;;;;13.14;48.08;101452.91;4940035;29;20426;-74
2023/06/05 03:27:51;;;;;;;2.65;1.10;;;;;;;13.14;48.13;101447.63;4932343;28;20071;-74
2023/06/05 03:30:22;;;;;;;2.23;1.40;;;;;;;13.15;47.50;101444.06;4952383;28;20091;-75
2023/06/05 03:32:50;;;;;;;2.22;1.23;;;;;;;13.17;48.10;101450.09;4950201;28;20498;-73
2023/06/05 03:35:18;;;;;;;4.40;1.83;;;;;;;13.16;48.47;101449.25;4919415;28;20142;-76
2023/06/05 03:37:46;;;;;;;2.75;1.40;;;;;;;13.17;48.69;101456.22;4970082;28;20451;-74
2023/06/05 03:40:15;;;;;;;5.38;1.30;;;;;;;13.15;49.20;101455.47;4957853;28;20055;-75
2023/06/05 03:42:44;;;;;;;3.72;1.23;;;;;;;13.13;49.23;101449.41;4928777;29;20508;-74
2023/06/05 03:45:13;;;;;;;2.83;1.25;;;;;;;13.15;49.01;101455.47;4948064;28;20106;-74
2023/06/05 03:47:44;;;;;;;7.15;1.77;;;;;;;13.18;48.73;101459.72;4924415;29;20087;-74
2023/06/05 03:50:12;;;;;;;3.05;1.63;;;;;;;13.22;48.78;101448.06;4960184;28;20034;-74
2023/06/05 03:52:41;;;;;;;2.83;1.73;;;;;;;13.25;49.28;101450.56;4948988;29;20121;-73
2023/06/05 03:55:12;;;;;;;2.58;1.40;;;;;;;13.27;49.38;101450.47;4948744;29;20039;-73
2023/06/05 03:57:44;;;;;;;3.40;1.73;;;;;;;13.30;49.37;101451.13;4956446;29;20044;-75
2023/06/05 04:00:19;;;;;;;4.88;1.92;;;;;;;13.32;49.29;101451.88;4952179;28;20063;-75
2023/06/05 04:02:47;;;;;;;8.80;2.07;;;;;;;13.33;48.66;101445.69;4915717;28;20122;-76
2023/06/05 04:05:18;;;;;;;3.00;1.35;;;;;;;13.38;48.78;101450.72;4951959;28;20079;-76
2023/06/05 04:07:49;;;;;;;3.38;1.35;;;;;;;13.41;48.35;101450.50;4951836;28;20051;-74
2023/06/05 04:10:20;;;;;;;3.22;1.70;;;;;;;13.44;48.88;101450.34;4941988;28;20071;-76
2023/06/05 04:12:53;;;;;;;4.70;1.58;;;;;;;13.47;48.30;101446.69;4952928;28;20097;-76
2023/06/05 04:15:23;;;;;;;3.97;1.50;;;;;;;13.50;48.72;101457.91;4949543;28;20052;-76
2023/06/05 04:17:55;;;;;;;4.40;1.88;;;;;;;13.55;48.46;101462.94;4967554;28;20075;-77
2023/06/05 04:20:30;;;;;;;3.65;1.85;;;;;;;13.59;48.42;101470.59;4939601;29;20049;-77
2023/06/05 04:23:05;;;;;;;5.75;1.95;;;;;;;13.62;47.92;101467.78;4957166;28;20062;-75
2023/06/05 04:25:45;;;;;;;7.13;1.77;;;;;;;13.64;48.13;101458.00;4941688;29;20086;-76
2023/06/05 04:28:16;;;;;;;2.92;1.60;;;;;;;13.70;47.56;101463.88;4954461;28;20085;-74
2023/06/05 04:30:50;;;;;;;7.68;1.95;;;;;;;13.77;47.48;101459.91;4947893;28;20047;-72
2023/06/05 04:33:20;;;;;;;5.32;2.22;;;;;;;13.81;47.16;101464.91;4948243;28;20129;-74
2023/06/05 04:35:49;;;;;;;3.00;1.45;;;;;;;13.87;47.26;101469.88;4957520;28;20106;-72
2023/06/05 04:38:21;;;;;;;4.95;1.73;;;;;;;13.94;46.80;101465.91;4948856;28;20055;-75
2023/06/05 04:40:49;;;;;;;4.07;1.80;;;;;;;14.01;46.82;101466.41;4934256;28;20159;-75
2023/06/05 04:43:17;;;;;;;2.95;1.73;;;;;;;14.08;46.60;101466.88;4949874;28;20491;-76
2023/06/05 04:45:45;;;;;;;5.20;2.45;;;;;;;14.14;46.17;101466.50;4954352;28;20062;-74
2023/06/05 04:48:13;;;;;;;6.32;2.25;;;;;;;14.17;47.38;101464.50;4964397;28;20885;-75
2023/06/05 04:50:41;;;;;;;2.45;1.70;;;;;;;14.21;47.04;101467.84;4949887;28;20078;-75
2023/06/05 04:53:10;;;;;;;3.35;1.67;;;;;;;14.30;46.38;101467.25;4951858;28;20055;-75
2023/06/05 04:55:39;;;;;;;4.45;1.85;;;;;;;14.39;45.90;101463.22;4954047;28;20063;-73
2023/06/05 04:58:12;;;;;;;3.08;1.65;;;;;;;14.47;45.52;101462.75;4946781;29;20042;-74
2023/06/05 05:00:40;;;;;;;5.53;1.60;;;;;;;14.54;44.96;101459.63;4935141;28;20062;-74
2023/06/05 05:03:18;;;;;;;3.10;2.00;;;;;;;14.61;45.04;101457.47;4949731;28;20043;-74
2023/06/05 05:05:47;;;;;;;8.65;1.60;;;;;;;14.67;45.00;101455.25;4950287;28;20059;-74
2023/06/05 05:08:18;;;;;;;3.67;1.67;;;;;;;14.74;44.88;101460.19;4965476;28;20059;-74
2023/06/05 05:10:49;;;;;;;6.57;1.50;;;;;;;14.79;44.92;101460.75;4934852;28;20051;-75
2023/06/05 05:13:19;;;;;;;2.95;1.77;;;;;;;14.87;44.88;101461.97;4934801;29;20047;-75
2023/06/05 05:15:47;;;;;;;6.05;1.92;;;;;;;14.96;44.57;101468.50;4937244;28;20085;-75
2023/06/05 05:18:16;;;;;;;3.30;1.40;;;;;;;15.06;44.25;101460.78;4939747;28;20498;-73
2023/06/05 05:20:47;;;;;;;6.95;2.28;;;;;;;15.13;44.32;101465.63;4963046;28;20047;-74
2023/06/05 05:23:15;;;;;;;3.78;1.70;;;;;;;15.23;44.14;101462.38;4929963;29;20118;-75
2023/06/05 05:25:46;;;;;;;3.42;1.98;;;;;;;15.30;43.77;101472.47;4945322;28;20422;-76
2023/06/05 05:28:16;;;;;;;5.30;1.90;;;;;;;15.38;43.91;101471.97;4942948;28;20066;-74
2023/06/05 05:30:44;;;;;;;4.85;1.85;;;;;;;15.47;43.74;101476.66;4943254;29;20521;-76
2023/06/05 05:33:14;;;;;;;7.03;1.75;;;;;;;15.55;43.59;101463.75;4942097;28;20059;-73
2023/06/05 05:35:46;;;;;;;4.72;1.70;;;;;;;15.64;43.09;101463.16;4947342;28;20058;-74
2023/06/05 05:38:15;;;;;;;3.90;1.90;;;;;;;15.76;42.77;101463.28;4935126;29;20517;-75
2023/06/05 05:40:45;;;;;;;4.80;2.20;;;;;;;15.84;42.40;101469.78;4947045;29;20420;-74
2023/06/05 05:43:19;;;;;;;3.17;1.70;;;;;;;15.95;42.31;101463.75;4945919;28;20166;-76
2023/06/05 05:45:52;;;;;;;3.15;1.90;;;;;;;16.06;41.95;101468.31;4930377;28;20750;-76
2023/06/05 05:48:22;;;;;;;6.15;1.75;;;;;;;16.14;41.85;101466.84;4946087;28;20068;-75
2023/06/05 05:50:52;;;;;;;4.18;2.03;;;;;;;16.28;41.72;101470.34;4941780;28;20131;-74
2023/06/05 05:53:20;;;;;;;4.78;2.17;;;;;;;16.38;41.56;101472.25;4945236;28;20106;-75
2023/06/05 05:55:50;;;;;;;3.38;1.83;;;;;;;16.49;41.29;101476.00;4930764;29;20045;-74
2023/06/05 05:58:19;;;;;;;7.18;2.10;;;;;;;16.61;41.27;101475.09;4919532;28;20051;-76
2023/06/05 06:00:48;;;;;;;6.07;1.77;;;;;;;16.74;40.91;101483.09;4952427;28;20174;-75
2023/06/05 06:03:35;;;;;;;5.03;2.00;;;;;;;16.86;40.56;101485.72;4928326;29;20058;-74
2023/06/05 06:06:08;;;;;;;7.03;2.03;;;;;;;16.98;40.26;101489.34;4946432;28;20047;-74
2023/06/05 06:08:36;;;;;;;6.93;2.10;;;;;;;17.06;40.37;101488.75;4945290;28;20039;-74
2023/06/05 06:11:28;;;;;;;2.80;1.50;;;;;;;17.18;40.05;101490.53;4939030;29;20039;-73
2023/06/05 06:14:02;;;;;;;7.80;1.45;;;;;;;17.31;39.65;101495.81;4940411;28;20063;-75
2023/06/05 06:16:30;;;;;;;4.13;1.83;;;;;;;17.43;39.36;101495.78;4962341;28;20131;-75
2023/06/05 06:19:05;;;;;;;4.50;1.60;;;;;;;17.55;39.26;101503.78;4944649;28;20061;-75
2023/06/05 06:21:39;;;;;;;4.88;1.95;;;;;;;17.64;38.38;101498.63;4951372;28;20051;-76
2023/06/05 06:24:06;;;;;;;4.95;1.77;;;;;;;17.72;38.77;101501.56;4961432;28;20059;-76
2023/06/05 06:26:37;;;;;;;14.52;2.40;;;;;;;17.83;38.43;101500.81;4946370;28;20039;-74
2023/06/05 06:29:08;;;;;;;8.68;2.10;;;;;;;17.96;38.08;101503.38;4961510;28;20059;-75
2023/06/05 06:31:36;;;;;;;6.25;1.95;;;;;;;18.07;38.15;101498.09;4919468;29;20725;-76
2023/06/05 06:34:08;;;;;;;6.90;2.05;;;;;;;18.19;38.03;101501.59;4952183;28;20197;-75
2023/06/05 06:36:40;;;;;;;7.50;2.47;;;;;;;18.31;37.86;101497.16;4923549;29;20051;-74
2023/06/05 06:39:10;;;;;;;5.88;2.35;;;;;;;18.42;37.57;101500.69;4962462;28;20055;-74
2023/06/05 06:41:43;;;;;;;10.02;3.03;;;;;;;18.57;37.48;101503.13;4943827;28;20051;-74
2023/06/05 06:44:11;;;;;;;7.60;2.55;;;;;;;18.70;37.20;101503.88;4945196;28;20083;-76
2023/06/05 06:46:41;;;;;;;7.65;1.95;;;;;;;18.81;37.04;101506.53;4928975;28;20039;-75
2023/06/05 06:49:08;;;;;;;7.85;2.30;;;;;;;18.91;36.70;101515.53;4947242;28;20055;-76
2023/06/05 06:51:39;;;;;;;10.85;2.28;;;;;;;19.02;36.42;101512.00;4945136;28;20051;-75
2023/06/05 06:54:07;;;;;;;3.05;1.70;;;;;;;19.14;36.23;101512.84;4927020;28;20082;-75
2023/06/05 06:56:36;;;;;;;7.55;1.70;;;;;;;19.26;36.34;101519.81;4940873;28;20106;-76
2023/06/05 06:59:13;;;;;;;7.30;1.90;;;;;;;19.36;35.93;101517.25;4927962;28;20462;-74
2023/06/05 07:01:46;;;;;;;8.40;2.03;;;;;;;19.45;35.76;101514.69;4932968;28;22015;-75
2023/06/05 07:04:19;;;;;;;6.95;1.85;;;;;;;19.57;35.60;101514.63;4959604;28;20538;-76
2023/06/05 07:06:47;;;;;;;7.18;1.75;;;;;;;19.67;35.47;101516.44;4945635;28;20574;-75
2023/06/05 07:09:18;;;;;;;9.02;2.15;;;;;;;19.70;34.73;101516.19;4962601;28;20074;-74
2023/06/05 07:11:47;;;;;;;7.95;1.95;;;;;;;19.84;34.81;101516.88;4949988;28;20106;-75
2023/06/05 07:14:19;;;;;;;9.18;1.90;;;;;;;19.89;34.36;101509.31;4948448;28;20055;-75
2023/06/05 07:16:55;;;;;;;4.90;2.10;;;;;;;19.96;34.37;101516.69;4941753;28;20059;-75
2023/06/05 07:19:22;;;;;;;4.90;1.98;;;;;;;20.06;34.25;101506.06;4947265;28;20577;-75
2023/06/05 07:21:50;;;;;;;4.60;1.52;;;;;;;20.15;33.55;101510.63;4946887;28;20055;-76
2023/06/05 07:24:18;;;;;;;3.80;1.85;;;;;;;20.28;33.60;101514.94;4918033;29;20553;-76
2023/06/05 07:26:45;;;;;;;7.63;1.75;;;;;;;20.29;32.51;101508.59;4960966;28;20059;-75
2023/06/05 07:29:14;;;;;;;8.00;1.73;;;;;;;20.34;32.69;101504.53;4945674;29;20051;-75
2023/06/05 07:31:43;;;;;;;8.57;2.15;;;;;;;20.51;32.83;101502.28;4930596;28;20057;-74
2023/06/05 07:34:12;;;;;;;7.32;2.00;;;;;;;20.65;32.85;101505.44;4944353;28;20157;-75
2023/06/05 07:36:40;;;;;;;9.75;1.80;;;;;;;20.79;32.68;101514.06;4944333;28;20102;-74
2023/06/05 07:39:07;;;;;;;7.13;2.10;;;;;;;20.86;32.16;101504.53;4931243;28;20071;-74
2023/06/05 07:41:38;;;;;;;5.15;1.85;;;;;;;20.94;32.11;101507.38;4943975;28;20123;-75
2023/06/05 07:44:08;;;;;;;6.25;1.70;;;;;;;21.07;31.70;101512.47;4947516;28;20056;-74
2023/06/05 07:46:39;;;;;;;9.43;1.85;;;;;;;21.14;31.43;101506.44;4948135;28;20438;-74
2023/06/05 07:49:10;;;;;;;5.28;2.22;;;;;;;21.22;30.95;101511.13;4940931;28;20083;-73
2023/06/05 07:51:39;;;;;;;5.47;1.60;;;;;;;21.39;30.38;101509.59;4924633;28;20066;-75
2023/06/05 07:54:12;;;;;;;6.07;1.92;;;;;;;21.52;30.44;101502.16;4941209;28;20154;-73
2023/06/05 07:56:44;;;;;;;5.35;1.70;;;;;;;21.63;30.31;101504.69;4945030;28;20074;-75
2023/06/05 07:59:39;;;;;;;7.47;2.00;;;;;;;21.70;29.85;101511.19;4944378;28;20058;-73
2023/06/05 08:02:07;;;;;;;5.97;1.95;;;;;;;21.85;29.86;101508.09;4930610;28;20066;-74
2023/06/05 08:04:35;;;;;;;7.75;1.95;;;;;;;22.02;29.90;101506.50;4931291;28;20113;-76
2023/06/05 08:07:04;;;;;;;10.48;1.80;;;;;;;22.14;29.41;101500.88;4962659;28;20079;-74
2023/06/05 08:09:36;;;;;;;2.67;1.40;;;;;;;22.30;29.42;101507.47;4958141;28;20121;-76
2023/06/05 08:12:06;;;;;;;4.80;1.50;;;;;;;22.41;29.45;101502.78;4929202;28;20099;-75
2023/06/05 08:14:42;;;;;;;3.58;1.80;;;;;;;22.49;29.59;101499.38;4943211;28;20047;-75
2023/06/05 08:17:11;;;;;;;9.88;2.22;;;;;;;22.61;28.84;101498.19;4944707;28;20059;-75
2023/06/05 08:19:41;;;;;;;7.78;1.42;;;;;;;22.63;27.63;101498.03;4942308;28;20150;-75
2023/06/05 08:22:12;;;;;;;7.05;1.73;;;;;;;22.62;28.10;101496.34;4946647;28;20086;-75
2023/06/05 08:24:39;;;;;;;5.60;1.30;;;;;;;22.79;28.17;101492.06;4929551;28;20050;-75
2023/06/05 08:27:07;;;;;;;7.00;1.70;;;;;;;22.91;28.06;101498.94;4945995;28;20051;-76
2023/06/05 08:29:38;;;;;;;12.82;1.85;;;;;;;22.99;28.37;101502.56;4942449;28;20127;-77
2023/06/05 08:32:30;;;;;;;7.80;1.90;;;;;;;23.07;28.14;101495.59;4946623;28;20047;-77
2023/06/05 08:35:03;;;;;;;7.43;1.98;;;;;;;23.21;28.42;101500.44;4948101;28;20051;-74
2023/06/05 08:37:31;;;;;;;5.13;1.42;;;;;;;23.36;28.33;101493.53;4919625;29;20066;-76
2023/06/05 08:40:01;;;;;;;3.95;1.63;;;;;;;23.47;28.18;101492.50;4932797;28;20073;-76
2023/06/05 08:43:18;;;;;;;3.63;1.83;;;;;;;23.59;27.52;101483.19;4926618;28;20047;-74
2023/06/05 08:45:52;;;;;;;3.83;1.15;;;;;;;23.69;27.08;101491.22;4948804;28;20131;-74
2023/06/05 08:48:25;;;;;;;4.47;1.73;;;;;;;23.79;27.26;101483.91;4960132;28;20785;-75
2023/06/05 08:50:54;;;;;;;6.28;1.35;;;;;;;23.86;26.80;101482.25;4938731;28;20102;-72
2023/06/05 08:53:25;;;;;;;4.38;1.70;;;;;;;23.92;26.40;101478.97;4941280;28;20129;-72
2023/06/05 08:55:54;;;;;;;7.47;2.25;;;;;;;23.98;26.71;101474.81;4943991;28;20055;-72
2023/06/05 08:58:22;;;;;;;10.30;2.08;;;;;;;24.11;26.51;101482.47;4965604;28;20406;-74
2023/06/05 09:00:49;;;;;;;8.40;2.03;;;;;;;24.24;26.83;101485.56;4947158;28;20059;-75
2023/06/05 09:03:20;;;;;;;6.85;2.00;;;;;;;24.38;26.35;101473.41;4950130;28;20071;-75
2023/06/05 09:05:48;;;;;;;5.90;2.05;;;;;;;24.50;26.16;101477.53;4945646;28;20138;-75
2023/06/05 09:08:16;;;;;;;2.35;1.50;;;;;;;24.52;25.48;101471.97;4947896;28;20051;-72
2023/06/05 09:10:44;;;;;;;4.15;1.48;;;;;;;24.52;25.44;101467.41;4932842;28;20051;-76
2023/06/05 09:13:16;;;;;;;5.55;1.85;;;;;;;24.58;25.46;101472.16;4950452;28;20201;-73
2023/06/05 09:15:50;;;;;;;3.80;1.42;;;;;;;24.66;25.36;101471.34;4946573;28;20565;-74
2023/06/05 09:18:23;;;;;;;8.38;1.83;;;;;;;24.75;25.74;101473.06;4941420;28;20059;-74
2023/06/05 09:20:50;;;;;;;3.05;1.38;;;;;;;24.89;25.51;101475.13;4944981;28;20059;-75
2023/06/05 09:23:28;;;;;;;8.10;2.10;;;;;;;25.02;25.77;101472.81;4952810;28;20082;-74
2023/06/05 09:25:58;;;;;;;5.85;1.88;;;;;;;25.12;25.41;101470.00;4945134;28;20077;-74
2023/06/05 09:28:27;;;;;;;2.53;1.73;;;;;;;25.27;25.61;101472.94;4935066;29;20417;-74
2023/06/05 09:34:39;;;;;;;4.63;1.55;;;;;;;25.39;24.17;101468.88;4944855;28;20079;-76
2023/06/05 09:37:11;;;;;;;6.40;2.15;;;;;;;25.28;23.70;101471.06;4947653;28;20118;-74
2023/06/05 09:39:46;;;;;;;3.25;1.75;;;;;;;25.29;24.45;101467.38;4962027;28;20074;-73
2023/06/05 09:42:13;;;;;;;;;;;;;;;25.40;24.48;101461.66;4931293;28;20051;-76
2023/06/05 09:44:40;;;;;;;8.43;1.80;;;;;;;25.55;24.28;101461.84;4933620;28;19926;-75
2023/06/05 09:47:10;;;;;;;7.90;1.70;;;;;;;25.69;24.54;101461.16;4944963;28;20178;-72
2023/06/05 09:49:41;;;;;;;4.55;1.45;;;;;;;25.79;23.26;101451.06;4946988;28;20099;-73
2023/06/05 09:52:13;;;;;;;7.22;1.60;;;;;;;25.62;23.44;101460.13;4926925;29;20125;-74
2023/06/05 09:54:46;;;;;;;3.78;1.40;;;;;;;25.49;23.58;101455.28;4944621;28;20048;-75
2023/06/05 09:57:15;;;;;;;6.93;1.73;;;;;;;25.55;24.21;101451.88;4929210;29;20455;-75
2023/06/05 09:59:55;;;;;;;3.08;1.63;;;;;;;25.68;24.37;101451.38;4932306;28;20054;-75
2023/06/05 10:02:27;;;;;;;5.97;1.67;;;;;;;25.82;24.07;101452.59;4961795;28;20059;-75
2023/06/05 10:04:59;;;;;;;2.70;1.23;;;;;;;25.96;23.62;101447.34;4930908;28;20094;-74
2023/06/05 10:07:27;;;;;;;5.00;1.50;;;;;;;26.04;23.72;101449.19;4928394;28;20123;-74
2023/06/05 10:09:54;;;;;;;5.95;1.58;;;;;;;26.05;23.25;101440.06;4930796;28;20066;-74
2023/06/05 10:12:27;;;;;;;2.00;1.40;;;;;;;26.08;23.05;101447.84;4914544;29;20075;-74
2023/06/05 10:14:57;;;;;;;2.45;1.20;;;;;;;26.01;22.63;101441.44;4954979;28;20060;-74
2023/06/05 10:17:28;;;;;;;4.05;1.42;;;;;;;25.82;23.09;101431.84;4943926;28;20546;-75
2023/06/05 10:20:00;;;;;;;3.03;1.67;;;;;;;25.91;23.78;101430.00;4944050;29;20040;-75
2023/06/05 10:22:29;;;;;;;4.38;1.40;;;;;;;26.09;23.78;101429.78;4913295;28;20055;-76
2023/06/05 10:24:59;;;;;;;2.30;1.40;;;;;;;26.24;23.30;101420.78;4946645;29;20642;-75
2023/06/05 10:28:11;;;;;;;3.85;1.55;;;;;;;26.42;23.55;101425.94;4932527;29;20047;-74
2023/06/05 10:30:50;;;;;;;4.55;1.70;;;;;;;26.58;23.46;101422.38;4910255;29;20087;-73
2023/06/05 10:33:47;;;;;;;5.55;1.42;;;;;;;26.61;22.71;101424.72;4948615;29;20075;-75
2023/06/05 10:36:40;;;;;;;3.47;1.45;;;;;;;26.69;22.60;101418.44;4953646;28;20062;-77
2023/06/05 10:39:36;;;;;;;8.65;1.67;;;;;;;26.87;22.75;101418.19;4938301;28;20161;-76
2023/06/05 10:42:06;;;;;;;2.95;1.52;;;;;;;27.01;23.00;101423.66;4963635;28;20047;-76
2023/06/05 10:44:42;;;;;;;6.80;1.60;;;;;;;27.08;22.71;101410.28;4947316;29;20610;-75
2023/06/05 10:47:31;;;;;;;5.18;1.52;;;;;;;27.16;22.81;101406.72;4934145;29;20039;-76
2023/06/05 10:50:22;;;;;;;6.65;1.45;;;;;;;27.27;22.55;101411.69;4962603;28;20051;-74
2023/06/05 10:52:49;;;;;;;4.20;1.52;;;;;;;27.32;22.62;101416.56;4948152;28;20447;-76
2023/06/05 10:55:20;;;;;;;4.57;2.00;;;;;;;27.44;22.30;101409.69;4914182;29;20797;-76
2023/06/05 10:58:01;;;;;;;4.50;1.65;;;;;;;27.46;21.83;101400.38;4942905;28;20413;-76
2023/06/05 11:00:32;;;;;;;3.08;1.50;;;;;;;27.52;22.00;101391.53;4958972;28;20087;-75
2023/06/05 11:03:01;;;;;;;7.57;2.10;;;;;;;27.51;22.14;101400.69;4950022;28;20221;-78
2023/06/05 11:05:30;;;;;;;3.60;1.80;;;;;;;27.64;22.12;101399.19;4945906;28;20058;-77
2023/06/05 11:08:18;;;;;;;6.50;1.65;;;;;;;27.79;21.71;101399.28;4945884;28;20401;-76
2023/06/05 11:11:09;;;;;;;5.85;1.67;;;;;;;27.88;21.57;101393.59;4974164;28;20086;-76
2023/06/05 11:13:55;;;;;;;3.85;1.77;;;;;;;28.00;21.56;101410.19;4934812;29;20129;-75
2023/06/05 11:16:50;;;;;;;5.60;1.63;;;;;;;28.00;21.10;101407.50;4935892;29;20130;-75
2023/06/05 11:19:22;;;;;;;5.57;2.22;;;;;;;28.06;21.26;101395.09;4965505;28;20126;-73
2023/06/05 11:22:10;;;;;;;4.10;1.73;;;;;;;28.20;21.16;101396.97;4949367;28;20098;-75
2023/06/05 11:24:41;;;;;;;3.13;1.63;;;;;;;28.20;20.42;101395.09;4914942;28;20561;-75
2023/06/05 11:27:41;;;;;;;2.47;1.75;;;;;;;28.41;20.82;101402.47;4957237;28;20051;-74
2023/06/05 11:30:16;;;;;;;4.10;2.03;;;;;;;28.54;20.14;101399.09;4930879;29;20071;-74
2023/06/05 11:33:12;;;;;;;4.82;2.05;;;;;;;28.40;19.73;101391.81;4933321;28;20085;-76
2023/06/05 11:35:50;;;;;;;5.18;2.15;;;;;;;28.33;20.20;101386.31;4960648;28;20122;-75
2023/06/05 11:38:24;;;;;;;3.53;1.92;;;;;;;28.36;19.85;101374.28;4963257;28;20530;-74
2023/06/05 11:40:52;;;;;;;6.07;1.88;;;;;;;28.51;19.99;101377.81;4932263;29;20055;-74
2023/06/05 11:43:23;;;;;;;4.63;1.70;;;;;;;28.77;20.54;101383.53;4929256;29;20039;-76
2023/06/05 11:45:55;;;;;;;6.68;1.85;;;;;;;28.95;20.27;101387.66;4932510;28;20051;-76
2023/06/05 11:48:28;;;;;;;4.88;1.90;;;;;;;29.07;20.08;101379.91;4950407;28;20059;-76
2023/06/05 11:51:00;;;;;;;9.18;1.88;;;;;;;29.12;19.68;101378.28;4923414;29;20067;-75
2023/06/05 11:53:29;;;;;;;5.93;1.80;;;;;;;29.14;19.36;101376.22;4929127;29;20044;-76
2023/06/05 11:58:39;;;;;;;5.43;2.13;;;;;;;29.38;20.13;101364.13;4930263;29;20042;-74
2023/06/05 12:01:17;;;;;;;4.90;1.90;;;;;;;29.38;19.19;101366.84;4947367;28;20498;-76
2023/06/05 12:03:46;;;;;;;3.40;1.75;;;;;;;28.81;18.96;101358.75;4933192;29;20486;-74